Time;durP1;ratioP1;P1;durP2;ratioP2;P2;SDS_P1;SDS_P2;PMS_P1;PMS_P2;Temp;Humidity;BMP_temperature;BMP_pressure;BME280_temperature;BME280_humidity;BME280_pressure;Samples;Min_cycle;Max_cycle;Signal;HPM_P1;HPM_P2
2022/01/04 00:01:32;;;;;;;6.88;2.58;;;10.30;99.90;;;;;;5013955;28;20077;-85
2022/01/04 00:04:00;;;;;;;6.40;1.70;;;10.40;99.90;;;;;;5010495;28;20027;-85
2022/01/04 00:06:26;;;;;;;5.07;1.83;;;10.50;99.90;;;;;;5011308;28;20030;-84
2022/01/04 00:08:58;;;;;;;5.45;2.35;;;10.50;99.90;;;;;;5009133;28;20034;-86
2022/01/04 00:11:41;;;;;;;5.80;2.00;;;10.50;99.90;;;;;;5009009;28;20102;-86
2022/01/04 00:14:08;;;;;;;5.80;2.28;;;10.50;99.90;;;;;;5006722;28;20094;-86
2022/01/04 00:16:34;;;;;;;8.65;2.60;;;10.50;99.90;;;;;;5007167;28;20015;-84
2022/01/04 00:18:59;;;;;;;6.53;2.83;;;10.50;99.90;;;;;;5014765;28;20026;-83
2022/01/04 00:21:25;;;;;;;6.18;2.88;;;10.50;99.90;;;;;;5009435;28;20038;-85
2022/01/04 00:23:51;;;;;;;6.28;2.70;;;10.50;99.90;;;;;;5006712;28;20086;-83
2022/01/04 00:26:17;;;;;;;8.52;3.00;;;10.50;99.90;;;;;;5006978;28;20038;-85
2022/01/04 00:28:42;;;;;;;7.78;2.45;;;10.50;99.90;;;;;;5005966;28;20057;-83
2022/01/04 00:31:08;;;;;;;5.90;2.38;;;10.50;99.90;;;;;;4994109;28;20023;-84
2022/01/04 00:33:34;;;;;;;4.97;2.50;;;10.50;99.90;;;;;;5007396;28;20037;-86
2022/01/04 00:36:00;;;;;;;7.93;2.53;;;10.50;99.90;;;;;;5009273;28;20022;-84
2022/01/04 00:38:26;;;;;;;7.22;2.80;;;10.50;99.90;;;;;;5006793;28;20088;-84
2022/01/04 00:40:54;;;;;;;10.15;3.05;;;10.50;99.90;;;;;;5006990;28;20034;-85
2022/01/04 00:43:20;;;;;;;7.28;2.30;;;10.40;99.90;;;;;;5006958;28;20085;-84
2022/01/04 00:45:46;;;;;;;7.18;2.55;;;10.50;99.90;;;;;;5007024;28;20030;-85
2022/01/04 00:50:38;;;;;;;6.45;2.47;;;10.40;99.90;;;;;;5007736;28;20394;-85
2022/01/04 00:53:06;;;;;;;12.30;2.50;;;10.30;99.90;;;;;;5009126;28;20026;-84
2022/01/04 00:55:32;;;;;;;4.97;2.20;;;10.30;99.90;;;;;;5009353;28;20041;-83
2022/01/04 00:57:58;;;;;;;8.10;2.80;;;10.30;99.90;;;;;;5017774;28;20018;-81
2022/01/04 01:00:24;;;;;;;5.57;2.50;;;10.40;99.90;;;;;;4993315;28;20037;-82
2022/01/04 01:02:50;;;;;;;7.80;2.60;;;10.40;99.90;;;;;;5015369;28;20030;-83
2022/01/04 01:05:17;;;;;;;9.40;2.70;;;10.40;99.90;;;;;;5010309;28;20019;-84
2022/01/04 01:07:43;;;;;;;5.93;2.42;;;10.40;99.90;;;;;;4994998;28;20042;-82
2022/01/04 01:12:56;;;;;;;6.43;2.85;;;10.40;99.90;;;;;;5009199;28;20030;-84
2022/01/04 01:15:22;;;;;;;6.97;2.67;;;10.30;99.90;;;;;;5013006;28;20057;-83
2022/01/04 01:17:48;;;;;;;7.00;2.25;;;10.30;99.90;;;;;;5014367;28;20027;-84
2022/01/04 01:20:14;;;;;;;9.55;2.53;;;10.30;99.90;;;;;;5014368;28;20053;-81
2022/01/04 01:22:42;;;;;;;4.70;2.10;;;10.20;99.90;;;;;;5012619;28;20086;-85
2022/01/04 01:25:11;;;;;;;7.35;2.67;;;10.20;99.90;;;;;;5016700;28;20014;-81
2022/01/04 01:27:41;;;;;;;8.35;2.67;;;10.30;99.90;;;;;;5034709;28;20037;-82
2022/01/04 01:30:07;;;;;;;6.57;2.58;;;10.20;99.90;;;;;;5019378;28;20052;-82
2022/01/04 01:32:33;;;;;;;8.70;2.58;;;10.30;99.90;;;;;;5016152;28;20037;-82
2022/01/04 01:34:59;;;;;;;6.85;2.60;;;10.30;99.90;;;;;;5015155;28;20031;-81
2022/01/04 01:37:25;;;;;;;6.80;2.78;;;10.20;99.90;;;;;;5038002;28;20025;-80
2022/01/04 01:39:51;;;;;;;7.38;3.15;;;10.30;99.90;;;;;;5036820;28;20044;-80
2022/01/04 01:42:17;;;;;;;8.20;3.20;;;10.20;99.90;;;;;;5015273;28;20019;-81
2022/01/04 01:44:46;;;;;;;8.57;2.92;;;10.20;99.90;;;;;;5019003;28;20051;-81
2022/01/04 01:47:15;;;;;;;12.30;3.33;;;10.20;99.90;;;;;;5018394;28;20066;-82
2022/01/04 01:49:41;;;;;;;7.65;3.13;;;10.20;99.90;;;;;;5017775;28;20042;-84
2022/01/04 01:52:11;;;;;;;8.95;3.83;;;10.20;99.90;;;;;;5014066;28;20078;-85
2022/01/04 01:54:37;;;;;;;7.93;3.90;;;10.20;99.90;;;;;;5047155;28;20090;-85
2022/01/04 01:57:03;;;;;;;5.40;3.28;;;10.10;99.90;;;;;;5012339;28;20031;-86
2022/01/04 01:59:29;;;;;;;7.90;2.90;;;10.10;99.90;;;;;;5026075;28;20042;-85
2022/01/04 02:01:55;;;;;;;7.10;2.40;;;10.10;99.90;;;;;;5045773;28;20050;-85
2022/01/04 02:04:25;;;;;;;5.97;2.40;;;10.20;99.90;;;;;;5011823;28;20030;-85
2022/01/04 02:06:51;;;;;;;7.70;2.75;;;10.20;99.90;;;;;;5043289;28;20022;-84
2022/01/04 02:09:17;;;;;;;7.68;3.63;;;10.20;99.90;;;;;;5017413;28;20069;-86
2022/01/04 02:11:44;;;;;;;5.78;2.60;;;10.10;99.90;;;;;;5043197;28;20126;-86
2022/01/04 02:14:11;;;;;;;8.18;3.03;;;10.20;99.90;;;;;;5015610;28;20034;-84
2022/01/04 02:16:37;;;;;;;4.70;2.20;;;10.20;99.90;;;;;;5018628;28;20098;-85
2022/01/04 02:19:05;;;;;;;7.72;3.20;;;10.20;99.90;;;;;;5051394;28;20305;-86
2022/01/04 02:21:32;;;;;;;6.28;2.50;;;10.20;99.90;;;;;;5018820;28;20050;-84
2022/01/04 02:23:59;;;;;;;6.93;2.42;;;10.20;99.90;;;;;;5018931;28;20046;-85
2022/01/04 02:26:25;;;;;;;5.28;2.45;;;10.20;99.90;;;;;;5017685;28;20022;-85
2022/01/04 02:28:54;;;;;;;5.57;2.30;;;10.20;99.90;;;;;;5008773;28;20030;-85
2022/01/04 02:31:19;;;;;;;9.07;3.38;;;10.20;99.90;;;;;;5014764;28;20048;-86
2022/01/04 02:33:45;;;;;;;6.72;2.30;;;10.10;99.90;;;;;;5033967;28;20042;-86
2022/01/04 02:36:14;;;;;;;5.05;2.50;;;10.10;99.90;;;;;;5046859;28;20062;-85
2022/01/04 02:38:40;;;;;;;6.88;2.88;;;10.10;99.90;;;;;;5017571;28;20022;-86
2022/01/04 02:41:06;;;;;;;10.45;3.00;;;10.10;99.90;;;;;;5016155;28;20035;-85
2022/01/04 02:43:32;;;;;;;6.05;2.70;;;10.10;99.90;;;;;;5012138;28;20485;-85
2022/01/04 02:46:01;;;;;;;5.70;2.63;;;10.10;99.90;;;;;;5016372;28;20023;-86
2022/01/04 02:48:27;;;;;;;8.05;3.70;;;10.10;99.90;;;;;;5017136;28;20062;-84
2022/01/04 02:50:56;;;;;;;8.75;2.92;;;10.10;99.90;;;;;;5038896;23;20043;-81
2022/01/04 02:53:21;;;;;;;6.72;2.90;;;10.10;99.90;;;;;;5055562;28;20056;-82
2022/01/04 02:55:47;;;;;;;6.85;2.53;;;10.10;99.90;;;;;;5039388;28;20033;-81
2022/01/04 02:58:13;;;;;;;9.60;2.45;;;10.10;99.90;;;;;;5038740;28;20038;-82
2022/01/04 03:00:39;;;;;;;8.43;3.28;;;10.00;99.90;;;;;;5054832;28;20048;-84
2022/01/04 03:03:05;;;;;;;5.40;2.22;;;10.00;99.90;;;;;;5033344;28;20054;-82
2022/01/04 03:05:31;;;;;;;8.48;2.95;;;10.00;99.90;;;;;;5033988;28;20057;-84
2022/01/04 03:07:56;;;;;;;5.30;2.33;;;10.00;99.90;;;;;;5000077;28;20030;-81
2022/01/04 03:10:22;;;;;;;5.72;1.95;;;10.10;99.90;;;;;;5032969;28;20017;-82
2022/01/04 03:12:48;;;;;;;5.95;2.45;;;10.20;99.90;;;;;;5013132;28;20082;-83
2022/01/04 03:15:14;;;;;;;4.20;2.30;;;10.10;99.90;;;;;;5033606;28;20085;-84
2022/01/04 03:17:41;;;;;;;6.50;2.60;;;10.20;99.90;;;;;;5016629;28;20025;-82
2022/01/04 03:20:10;;;;;;;6.07;2.33;;;10.20;99.90;;;;;;5032622;28;20034;-85
2022/01/04 03:22:35;;;;;;;7.28;2.50;;;10.20;99.90;;;;;;5023883;28;20026;-86
2022/01/04 03:25:01;;;;;;;5.18;2.50;;;10.20;99.90;;;;;;5030155;28;20504;-82
2022/01/04 03:27:27;;;;;;;8.20;2.85;;;10.20;99.90;;;;;;5031376;28;20116;-84
2022/01/04 03:29:53;;;;;;;6.97;2.53;;;10.10;99.90;;;;;;5030258;28;20072;-83
2022/01/04 03:32:19;;;;;;;3.95;2.45;;;10.20;99.90;;;;;;5030690;28;20086;-84
2022/01/04 03:34:44;;;;;;;7.25;2.72;;;10.10;99.90;;;;;;5032406;28;20030;-83
2022/01/04 03:37:10;;;;;;;7.43;2.97;;;10.10;99.90;;;;;;5032820;28;20014;-83
2022/01/04 03:39:36;;;;;;;7.28;3.20;;;10.10;99.90;;;;;;5014009;28;20069;-82
2022/01/04 03:42:03;;;;;;;7.50;2.92;;;10.10;99.90;;;;;;5013164;28;20057;-82
2022/01/04 03:44:28;;;;;;;5.47;3.20;;;10.10;99.90;;;;;;5028943;28;20042;-84
2022/01/04 03:46:55;;;;;;;11.15;3.20;;;10.10;99.90;;;;;;5005975;28;20061;-85
2022/01/04 03:49:22;;;;;;;7.97;3.58;;;10.10;99.90;;;;;;5025590;28;20026;-81
2022/01/04 03:51:48;;;;;;;8.07;3.50;;;10.10;99.90;;;;;;5019349;28;20022;-82
2022/01/04 03:54:14;;;;;;;7.45;3.17;;;10.20;99.90;;;;;;5036643;28;20037;-83
2022/01/04 03:56:40;;;;;;;5.68;2.70;;;10.20;99.90;;;;;;5037578;28;20057;-83
2022/01/04 03:59:05;;;;;;;6.22;2.85;;;10.20;99.90;;;;;;5039809;28;20026;-84
2022/01/04 04:01:31;;;;;;;7.60;2.47;;;10.20;99.90;;;;;;5039716;28;20061;-83
2022/01/04 04:03:57;;;;;;;3.53;2.28;;;10.30;99.90;;;;;;5039898;28;20017;-83
2022/01/04 04:06:23;;;;;;;8.43;3.17;;;10.30;99.90;;;;;;5033368;28;20034;-85
2022/01/04 04:08:49;;;;;;;8.02;2.70;;;10.30;99.90;;;;;;5023620;28;20041;-83
2022/01/04 04:11:15;;;;;;;6.65;2.38;;;10.30;99.90;;;;;;5022301;28;20100;-84
2022/01/04 04:13:41;;;;;;;4.95;2.40;;;10.30;99.90;;;;;;5022238;28;20084;-83
2022/01/04 04:16:06;;;;;;;6.43;2.78;;;10.30;99.90;;;;;;5034906;28;20026;-83
2022/01/04 04:18:33;;;;;;;7.15;2.90;;;10.30;99.90;;;;;;5025062;28;20030;-85
2022/01/04 04:20:59;;;;;;;7.07;2.97;;;10.20;99.90;;;;;;5005847;28;20555;-84
2022/01/04 04:23:24;;;;;;;8.82;2.40;;;10.30;99.90;;;;;;5036879;28;20014;-83
2022/01/04 04:25:50;;;;;;;10.55;3.33;;;10.30;99.90;;;;;;5039178;28;20025;-82
2022/01/04 04:28:16;;;;;;;9.18;2.45;;;10.30;99.90;;;;;;5032984;28;20496;-82
2022/01/04 04:30:42;;;;;;;5.43;2.05;;;10.20;99.90;;;;;;5037769;28;20022;-83
2022/01/04 04:33:08;;;;;;;4.60;2.28;;;10.20;99.90;;;;;;5021399;28;20089;-81
2022/01/04 04:35:33;;;;;;;3.95;1.83;;;10.10;99.90;;;;;;5037644;28;20018;-83
2022/01/04 04:38:01;;;;;;;5.18;2.10;;;10.00;99.90;;;;;;5020230;28;20078;-84
2022/01/04 04:40:27;;;;;;;4.80;2.05;;;9.90;99.90;;;;;;5036233;28;20025;-82
2022/01/04 04:42:53;;;;;;;6.28;2.20;;;9.80;99.90;;;;;;5036498;28;20021;-84
2022/01/04 04:45:19;;;;;;;4.43;2.10;;;9.70;99.90;;;;;;5036467;28;20021;-82
2022/01/04 04:47:45;;;;;;;6.75;2.00;;;9.60;99.90;;;;;;5019035;28;20068;-82
2022/01/04 04:50:11;;;;;;;5.03;2.25;;;9.60;99.90;;;;;;5036095;28;20017;-81
2022/01/04 04:52:37;;;;;;;4.47;2.15;;;9.50;99.90;;;;;;5036098;28;20026;-81
2022/01/04 04:55:04;;;;;;;8.10;1.98;;;9.50;99.90;;;;;;5019159;28;20029;-82
2022/01/04 04:57:30;;;;;;;2.80;1.75;;;9.50;99.90;;;;;;5036636;28;20054;-82
2022/01/04 04:59:56;;;;;;;6.00;1.65;;;9.50;99.90;;;;;;5036687;28;20024;-82
2022/01/04 05:02:22;;;;;;;5.13;1.85;;;9.50;99.90;;;;;;5017811;28;20097;-84
2022/01/04 05:04:48;;;;;;;6.35;2.00;;;9.50;99.90;;;;;;5034198;28;20034;-83
2022/01/04 05:07:13;;;;;;;6.95;2.17;;;9.50;99.90;;;;;;5036191;28;20018;-82
2022/01/04 05:09:40;;;;;;;4.22;1.90;;;9.50;99.90;;;;;;5038122;28;20029;-81
2022/01/04 05:12:06;;;;;;;3.75;1.88;;;9.40;99.90;;;;;;5038500;28;20022;-81
2022/01/04 05:14:32;;;;;;;5.05;2.13;;;9.40;99.90;;;;;;5020158;28;20013;-84
2022/01/04 05:16:58;;;;;;;4.82;1.50;;;9.40;99.90;;;;;;5019505;28;20081;-83
2022/01/04 05:19:24;;;;;;;6.35;2.15;;;9.40;99.90;;;;;;5037614;28;20037;-81
2022/01/04 05:21:51;;;;;;;7.43;2.13;;;9.40;99.90;;;;;;5037757;28;20034;-83
2022/01/04 05:24:17;;;;;;;8.60;2.15;;;9.40;99.90;;;;;;5037338;28;20033;-80
2022/01/04 05:26:42;;;;;;;3.58;1.40;;;9.40;99.90;;;;;;5026828;28;20049;-84
2022/01/04 05:29:08;;;;;;;6.80;1.92;;;9.30;99.90;;;;;;5006578;28;20136;-84
2022/01/04 05:31:36;;;;;;;6.03;2.08;;;9.30;99.90;;;;;;5023521;28;20030;-85
2022/01/04 05:34:01;;;;;;;3.67;1.80;;;9.20;99.90;;;;;;5023664;28;20061;-85
2022/01/04 05:36:27;;;;;;;4.78;2.03;;;9.20;99.90;;;;;;5026520;28;20022;-83
2022/01/04 05:38:53;;;;;;;5.95;2.10;;;9.10;99.90;;;;;;5023136;28;20022;-84
2022/01/04 05:41:18;;;;;;;3.25;1.85;;;9.10;99.90;;;;;;5023551;28;20564;-85
2022/01/04 05:43:46;;;;;;;7.10;2.25;;;9.00;99.90;;;;;;5023810;28;20076;-84
2022/01/04 05:46:12;;;;;;;10.35;2.17;;;9.00;99.90;;;;;;5024648;28;20025;-83
2022/01/04 05:48:37;;;;;;;5.53;1.95;;;9.00;99.90;;;;;;5024145;28;20223;-84
2022/01/04 05:51:03;;;;;;;3.33;1.63;;;8.90;99.90;;;;;;5024616;28;20034;-83
2022/01/04 05:53:30;;;;;;;7.13;1.95;;;8.90;99.90;;;;;;5023156;28;20076;-85
2022/01/04 05:55:55;;;;;;;4.85;2.05;;;8.80;99.90;;;;;;5023468;28;20030;-85
2022/01/04 05:58:21;;;;;;;5.55;2.35;;;8.80;99.90;;;;;;5005651;28;20572;-86
2022/01/04 06:00:47;;;;;;;6.60;2.33;;;8.80;99.90;;;;;;5006910;28;20025;-85
2022/01/04 06:03:12;;;;;;;6.95;2.00;;;8.80;99.90;;;;;;5005477;28;20034;-85
2022/01/04 06:05:38;;;;;;;7.35;2.10;;;8.80;99.90;;;;;;4990030;28;20037;-85
2022/01/04 06:08:04;;;;;;;4.55;2.00;;;8.80;99.90;;;;;;5022591;28;20025;-85
2022/01/04 06:10:37;;;;;;;9.25;2.45;;;8.80;99.90;;;;;;5003124;28;20107;-84
2022/01/04 06:15:30;;;;;;;4.95;2.33;;;8.70;99.90;;;;;;5022485;28;20033;-84
2022/01/04 06:17:57;;;;;;;7.50;2.53;;;8.70;99.90;;;;;;5022833;28;20033;-86
2022/01/04 06:20:24;;;;;;;3.50;2.13;;;8.60;99.90;;;;;;5023975;28;20033;-84
2022/01/04 06:22:51;;;;;;;6.55;2.22;;;8.60;99.90;;;;;;5007271;28;20537;-85
2022/01/04 06:25:20;;;;;;;5.43;2.10;;;8.70;99.90;;;;;;5027534;28;20065;-84
2022/01/04 06:27:50;;;;;;;4.38;2.25;;;8.60;99.90;;;;;;5009857;28;20109;-85
2022/01/04 06:30:17;;;;;;;4.72;2.40;;;8.60;99.90;;;;;;5022602;28;20034;-85
2022/01/04 06:32:44;;;;;;;5.60;2.35;;;8.60;99.90;;;;;;5021724;28;20017;-85
2022/01/04 06:35:13;;;;;;;4.47;2.30;;;8.60;99.90;;;;;;5023798;28;20056;-85
2022/01/04 06:37:41;;;;;;;5.78;2.45;;;8.60;99.90;;;;;;5008431;28;20090;-85
2022/01/04 06:40:08;;;;;;;4.15;2.20;;;8.60;99.90;;;;;;5007848;28;20030;-86
2022/01/04 06:42:34;;;;;;;7.43;2.33;;;8.60;99.90;;;;;;5029925;28;20049;-85
2022/01/04 06:45:00;;;;;;;7.50;2.20;;;8.60;99.90;;;;;;5024032;28;20034;-85
2022/01/04 06:47:26;;;;;;;5.65;2.53;;;8.60;99.90;;;;;;5004530;28;20084;-85
2022/01/04 06:49:51;;;;;;;7.00;2.08;;;8.60;99.90;;;;;;5004420;28;20038;-83
2022/01/04 06:52:17;;;;;;;4.93;2.22;;;8.60;99.90;;;;;;5022069;28;20444;-85
2022/01/04 06:54:43;;;;;;;4.68;2.45;;;8.60;99.90;;;;;;5023232;28;20026;-86
2022/01/04 06:57:09;;;;;;;6.10;2.97;;;8.60;99.90;;;;;;5020405;28;20033;-84
2022/01/04 06:59:34;;;;;;;11.95;3.90;;;8.60;99.90;;;;;;5021242;28;20046;-84
2022/01/04 07:02:00;;;;;;;7.25;3.80;;;8.60;99.90;;;;;;5022171;28;20042;-86
2022/01/04 07:04:26;;;;;;;5.82;2.20;;;8.70;99.90;;;;;;5026725;28;20021;-84
2022/01/04 07:06:52;;;;;;;4.93;2.25;;;8.70;99.90;;;;;;5013035;28;20022;-85
2022/01/04 07:09:18;;;;;;;6.45;2.85;;;8.80;99.90;;;;;;5018016;28;20034;-84
2022/01/04 07:11:44;;;;;;;6.53;2.83;;;8.80;99.90;;;;;;5033803;28;20045;-84
2022/01/04 07:14:09;;;;;;;9.20;3.53;;;8.80;99.90;;;;;;5002908;28;20257;-84
2022/01/04 07:16:35;;;;;;;11.45;2.60;;;8.80;99.90;;;;;;5035406;28;20026;-84
2022/01/04 07:19:01;;;;;;;7.07;3.40;;;8.80;99.90;;;;;;5035665;28;20048;-84
2022/01/04 07:21:27;;;;;;;11.00;3.05;;;8.80;99.90;;;;;;5035613;28;20018;-85
2022/01/04 07:23:55;;;;;;;5.78;3.28;;;8.80;99.90;;;;;;5036231;28;20085;-84
2022/01/04 07:26:22;;;;;;;7.57;3.65;;;8.80;99.90;;;;;;5018041;28;20044;-84
2022/01/04 07:28:49;;;;;;;8.80;3.42;;;8.70;99.90;;;;;;5017240;28;20030;-86
2022/01/04 07:31:16;;;;;;;7.20;3.90;;;8.70;99.90;;;;;;5034532;28;20030;-84
2022/01/04 07:33:42;;;;;;;14.30;4.10;;;8.60;99.90;;;;;;5037819;28;20033;-84
2022/01/04 07:36:08;;;;;;;6.85;4.13;;;8.60;99.90;;;;;;5022110;28;20053;-85
2022/01/04 07:38:36;;;;;;;10.75;3.65;;;8.60;99.90;;;;;;5039524;28;20018;-85
2022/01/04 07:41:03;;;;;;;9.02;4.05;;;8.60;99.90;;;;;;5037716;28;20030;-86
2022/01/04 07:43:31;;;;;;;9.35;4.22;;;8.50;99.90;;;;;;5034383;28;20040;-84
2022/01/04 07:45:57;;;;;;;9.73;4.80;;;8.60;99.90;;;;;;5035661;28;20037;-85
2022/01/04 07:48:23;;;;;;;12.10;5.18;;;8.50;99.90;;;;;;5016024;28;20133;-85
2022/01/04 07:50:50;;;;;;;9.20;4.72;;;8.50;99.90;;;;;;5016958;28;20144;-86
2022/01/04 07:53:17;;;;;;;12.55;5.80;;;8.50;99.90;;;;;;5016066;28;20100;-86
2022/01/04 07:55:43;;;;;;;12.25;5.05;;;8.50;99.90;;;;;;5034180;28;20038;-85
2022/01/04 07:58:08;;;;;;;11.07;5.68;;;8.50;99.90;;;;;;5032737;28;20098;-85
2022/01/04 08:00:34;;;;;;;13.70;6.38;;;8.60;99.90;;;;;;5013902;28;20440;-84
2022/01/04 08:03:00;;;;;;;12.45;6.22;;;8.60;99.90;;;;;;5014013;28;20037;-85
2022/01/04 08:05:26;;;;;;;16.13;6.53;;;8.60;99.90;;;;;;5031055;28;20030;-85
2022/01/04 08:07:52;;;;;;;14.45;7.30;;;8.60;99.90;;;;;;5014441;28;20034;-85
2022/01/04 08:10:18;;;;;;;14.45;7.07;;;8.60;99.90;;;;;;5014028;28;20026;-87
2022/01/04 08:12:44;;;;;;;15.50;7.15;;;8.70;99.90;;;;;;5025809;28;20113;-86
2022/01/04 08:15:11;;;;;;;12.82;7.50;;;8.70;99.90;;;;;;5006619;28;20018;-86
2022/01/04 08:17:38;;;;;;;16.95;7.38;;;8.70;99.90;;;;;;4991075;28;20029;-84
2022/01/04 08:20:05;;;;;;;12.68;6.55;;;8.70;99.90;;;;;;5025019;28;20084;-86
2022/01/04 08:22:32;;;;;;;19.17;7.40;;;8.80;99.90;;;;;;5007318;28;20030;-84
2022/01/04 08:25:03;;;;;;;16.10;8.35;;;8.90;99.90;;;;;;5035104;28;20079;-85
2022/01/04 08:27:29;;;;;;;19.05;8.40;;;8.90;99.90;;;;;;5039301;28;20106;-85
2022/01/04 08:29:56;;;;;;;14.32;8.23;;;9.00;99.90;;;;;;5034966;28;20053;-86
2022/01/04 08:32:22;;;;;;;18.02;8.30;;;8.90;99.90;;;;;;5033904;28;20026;-85
2022/01/04 08:34:48;;;;;;;18.48;8.38;;;9.00;99.90;;;;;;5020921;28;20018;-86
2022/01/04 08:37:14;;;;;;;17.23;8.13;;;8.90;99.90;;;;;;5032011;28;20095;-84
2022/01/04 08:39:40;;;;;;;16.40;8.50;;;8.90;99.90;;;;;;5015253;28;20026;-83
2022/01/04 08:42:06;;;;;;;20.25;8.88;;;9.00;99.90;;;;;;5016112;28;20485;-84
2022/01/04 08:44:33;;;;;;;15.50;9.00;;;9.10;99.90;;;;;;5016245;28;20066;-84
2022/01/04 08:46:59;;;;;;;20.70;9.43;;;9.20;99.90;;;;;;5016048;28;20042;-84
2022/01/04 08:49:26;;;;;;;21.42;9.75;;;9.30;99.90;;;;;;5034527;28;20038;-86
2022/01/04 08:51:51;;;;;;;15.27;8.18;;;9.30;99.90;;;;;;5051230;23;20033;-87
2022/01/04 08:54:17;;;;;;;22.88;9.63;;;9.30;99.90;;;;;;5031425;28;20037;-87
2022/01/04 08:56:43;;;;;;;21.73;10.20;;;9.30;99.90;;;;;;5049629;28;20081;-89
2022/01/04 08:59:10;;;;;;;20.10;10.88;;;9.30;99.90;;;;;;5032097;28;20089;-87
2022/01/04 09:01:37;;;;;;;22.40;11.65;;;9.20;99.90;;;;;;5006334;28;20061;-87
2022/01/04 09:04:03;;;;;;;22.10;12.50;;;9.10;99.90;;;;;;5007550;28;20018;-87
2022/01/04 09:06:30;;;;;;;36.40;14.15;;;9.00;99.90;;;;;;4998470;28;20022;-86
2022/01/04 09:08:56;;;;;;;26.92;13.75;;;9.00;99.90;;;;;;5026384;28;20030;-87
2022/01/04 09:11:23;;;;;;;28.15;14.45;;;9.00;99.90;;;;;;5009505;28;20057;-88
2022/01/04 09:13:51;;;;;;;27.90;15.35;;;8.90;99.90;;;;;;5025674;28;20073;-88
2022/01/04 09:18:43;;;;;;;35.95;14.70;;;8.90;99.90;;;;;;5030580;28;20038;-89
2022/01/04 09:21:16;;;;;;;27.42;14.30;;;8.90;99.90;;;;;;5007883;28;20113;-86
2022/01/04 09:23:43;;;;;;;33.35;16.23;;;8.80;99.90;;;;;;5015988;28;20053;-86
2022/01/04 09:26:10;;;;;;;31.85;15.65;;;8.80;99.90;;;;;;5011860;28;20038;-87
2022/01/04 09:28:36;;;;;;;27.98;14.35;;;8.70;99.90;;;;;;5025880;28;20202;-88
2022/01/04 09:31:02;;;;;;;26.20;15.18;;;8.70;99.90;;;;;;5025329;28;20033;-87
2022/01/04 09:33:29;;;;;;;28.95;14.68;;;8.80;99.90;;;;;;5014618;28;20016;-87
2022/01/04 09:35:55;;;;;;;32.38;15.80;;;8.90;99.90;;;;;;5022583;28;20026;-86
2022/01/04 09:38:21;;;;;;;29.13;16.15;;;8.80;99.90;;;;;;4987848;28;20064;-87
2022/01/04 09:40:49;;;;;;;29.00;16.10;;;8.80;99.90;;;;;;5006887;28;20528;-87
2022/01/04 09:43:16;;;;;;;31.50;15.88;;;8.80;99.90;;;;;;4988421;28;20030;-88
2022/01/04 09:45:43;;;;;;;31.95;17.52;;;8.80;99.90;;;;;;4988795;28;20057;-88
2022/01/04 09:48:09;;;;;;;36.65;18.02;;;8.70;99.90;;;;;;5011387;28;20035;-86
2022/01/04 09:50:40;;;;;;;33.00;17.08;;;8.70;99.90;;;;;;5026698;28;20041;-87
2022/01/04 09:53:09;;;;;;;37.40;18.05;;;8.70;99.90;;;;;;5026807;28;20026;-87
2022/01/04 09:55:38;;;;;;;35.35;17.88;;;8.70;99.90;;;;;;5018362;28;20092;-86
2022/01/04 09:58:05;;;;;;;29.27;16.73;;;8.80;99.90;;;;;;4991667;28;20074;-86
2022/01/04 10:00:31;;;;;;;29.67;16.00;;;8.70;99.90;;;;;;5008348;28;20026;-87
2022/01/04 10:03:14;;;;;;;33.28;17.70;;;8.70;99.90;;;;;;5026885;28;20010;-88
2022/01/04 10:05:40;;;;;;;36.40;17.92;;;8.60;99.90;;;;;;5026215;28;20034;-88
2022/01/04 10:08:09;;;;;;;30.73;17.40;;;8.60;99.90;;;;;;5007473;28;20066;-87
2022/01/04 10:10:36;;;;;;;32.45;17.65;;;8.60;99.90;;;;;;5008496;28;20041;-87
2022/01/04 10:13:06;;;;;;;36.25;18.20;;;8.60;99.90;;;;;;5009075;28;20026;-87
2022/01/04 10:15:35;;;;;;;32.22;16.88;;;8.60;99.90;;;;;;4995386;28;20037;-88
2022/01/04 10:18:25;;;;;;;35.78;17.63;;;8.60;99.90;;;;;;5012036;28;20145;-88
2022/01/04 10:21:14;;;;;;;30.90;17.58;;;8.50;99.90;;;;;;5013315;28;20038;-87
2022/01/04 10:23:53;;;;;;;29.35;17.00;;;8.60;99.90;;;;;;5037543;28;20044;-89
2022/01/04 10:26:37;;;;;;;34.75;17.35;;;8.60;99.90;;;;;;5011633;28;20084;-89
2022/01/04 10:29:22;;;;;;;33.83;17.83;;;8.70;99.90;;;;;;4988366;28;20041;-88
2022/01/04 10:31:48;;;;;;;;;;;8.90;99.90;;;;;;5003077;28;20030;-88
2022/01/04 10:34:14;;;;;;;35.55;17.20;;;9.10;99.90;;;;;;5029685;28;19906;-88
2022/01/04 10:36:40;;;;;;;35.75;17.45;;;9.30;99.90;;;;;;5016288;28;20038;-86
2022/01/04 10:39:09;;;;;;;30.60;17.00;;;9.30;99.90;;;;;;5036338;28;20033;-88
2022/01/04 10:41:35;;;;;;;35.10;16.80;;;9.20;99.90;;;;;;5021219;28;20022;-87
2022/01/04 10:44:07;;;;;;;29.15;16.23;;;9.20;99.90;;;;;;5021081;28;20038;-87
2022/01/04 10:46:42;;;;;;;30.42;16.33;;;9.20;99.90;;;;;;5037486;28;20014;-87
2022/01/04 10:49:19;;;;;;;;;;;9.20;99.90;;;;;;5038367;28;20030;-90
2022/01/04 10:52:02;;;;;;;27.35;13.95;;;9.10;99.90;;;;;;5003810;28;19908;-89
2022/01/04 10:54:29;;;;;;;28.27;14.23;;;9.10;99.90;;;;;;5020835;28;20034;-88
2022/01/04 10:57:04;;;;;;;27.27;14.02;;;9.00;99.90;;;;;;5036890;28;20070;-89
2022/01/04 10:59:30;;;;;;;24.58;13.43;;;9.00;99.90;;;;;;5018995;28;20038;-88
2022/01/04 11:01:56;;;;;;;23.15;14.30;;;9.00;99.90;;;;;;5026505;28;20029;-87
2022/01/04 11:04:23;;;;;;;25.15;13.35;;;9.10;99.90;;;;;;5000999;28;20078;-90
2022/01/04 11:06:58;;;;;;;23.60;13.68;;;9.10;99.90;;;;;;5020203;28;20078;-91
2022/01/04 11:09:24;;;;;;;26.00;13.48;;;9.00;99.90;;;;;;5021825;28;20030;-90
2022/01/04 11:11:50;;;;;;;26.13;12.93;;;9.10;99.90;;;;;;4988535;28;20038;-88
2022/01/04 11:14:17;;;;;;;26.13;13.80;;;9.10;99.90;;;;;;5005225;28;20073;-88
2022/01/04 11:16:44;;;;;;;23.73;13.07;;;9.00;99.90;;;;;;5005566;28;20026;-87
2022/01/04 11:19:10;;;;;;;22.90;12.57;;;9.10;99.90;;;;;;5005288;28;20023;-89
2022/01/04 11:21:40;;;;;;;22.40;12.82;;;9.10;99.90;;;;;;5005443;28;20014;-90
2022/01/04 11:24:08;;;;;;;24.42;12.98;;;9.10;99.90;;;;;;5026057;28;20026;-82
2022/01/04 11:26:38;;;;;;;26.08;13.82;;;9.20;99.90;;;;;;5041200;28;20098;-84
2022/01/04 11:29:04;;;;;;;21.35;12.07;;;9.20;99.90;;;;;;5023974;28;20018;-88
2022/01/04 11:31:54;;;;;;;24.10;12.63;;;9.20;99.90;;;;;;5041483;28;20030;-89
2022/01/04 11:34:55;;;;;;;31.02;12.70;;;9.20;99.90;;;;;;5024545;28;20025;-90
2022/01/04 11:37:22;;;;;;;27.00;12.77;;;9.20;99.90;;;;;;5039450;28;20034;-88
2022/01/04 11:39:51;;;;;;;24.88;12.43;;;9.10;99.90;;;;;;5023501;28;20026;-88
2022/01/04 11:42:38;;;;;;;22.80;12.55;;;9.10;99.90;;;;;;5024626;28;20045;-90
2022/01/04 11:45:09;;;;;;;23.15;12.70;;;9.20;99.90;;;;;;5008597;28;20026;-90
2022/01/04 11:47:37;;;;;;;24.45;13.23;;;9.30;99.90;;;;;;5040846;28;20029;-89
2022/01/04 11:50:13;;;;;;;24.20;12.45;;;9.30;99.90;;;;;;5024224;28;20033;-89
2022/01/04 11:52:39;;;;;;;23.17;12.93;;;9.20;99.90;;;;;;5024455;28;20061;-88
2022/01/04 11:55:31;;;;;;;25.17;13.95;;;9.30;99.90;;;;;;5023995;28;20011;-89
2022/01/04 11:58:03;;;;;;;26.00;13.82;;;9.20;99.90;;;;;;5024512;28;20010;-87
2022/01/04 12:00:38;;;;;;;26.70;14.45;;;9.20;99.90;;;;;;5024388;28;20022;-89
2022/01/04 12:03:18;;;;;;;24.02;13.07;;;9.10;99.90;;;;;;5008228;28;20065;-89
2022/01/04 12:06:05;;;;;;;30.80;13.35;;;9.10;99.90;;;;;;5024269;28;20026;-89
2022/01/04 12:08:41;;;;;;;25.75;13.95;;;9.00;99.90;;;;;;5022419;28;20034;-89
2022/01/04 12:11:29;;;;;;;26.25;14.07;;;8.90;99.90;;;;;;5028251;28;20034;-88
2022/01/04 12:14:03;;;;;;;23.63;13.77;;;8.80;99.90;;;;;;5015240;28;20096;-87
2022/01/04 12:16:43;;;;;;;28.15;13.80;;;8.80;99.90;;;;;;4998110;28;20064;-89
2022/01/04 12:19:10;;;;;;;30.38;14.45;;;8.80;99.90;;;;;;5023349;28;20030;-87
2022/01/04 12:22:01;;;;;;;28.40;13.90;;;8.80;99.90;;;;;;5034875;28;20106;-88
2022/01/04 12:24:43;;;;;;;28.67;14.70;;;8.80;99.90;;;;;;5019504;28;20508;-86
2022/01/04 12:27:13;;;;;;;28.50;15.00;;;8.90;99.90;;;;;;5037741;28;20073;-86
2022/01/04 12:29:39;;;;;;;29.27;15.05;;;9.00;99.90;;;;;;5021101;28;20018;-88
2022/01/04 12:32:09;;;;;;;24.55;14.25;;;9.00;99.90;;;;;;5038329;28;20409;-87
2022/01/04 12:34:49;;;;;;;27.13;15.15;;;9.10;99.90;;;;;;5040412;28;20026;-87
2022/01/04 12:37:18;;;;;;;28.77;14.77;;;9.10;99.90;;;;;;5005356;28;20045;-88
2022/01/04 12:39:46;;;;;;;26.65;14.23;;;9.20;99.90;;;;;;5031859;28;20033;-88
2022/01/04 12:42:15;;;;;;;25.77;14.55;;;9.10;99.90;;;;;;5009309;28;20410;-88
2022/01/04 12:44:41;;;;;;;29.63;14.48;;;9.20;99.90;;;;;;5028536;28;20475;-88
2022/01/04 12:47:09;;;;;;;27.05;14.55;;;9.30;99.90;;;;;;4994193;28;20072;-89
2022/01/04 12:49:37;;;;;;;30.45;15.32;;;9.30;99.90;;;;;;4979638;28;20030;-88
2022/01/04 12:52:06;;;;;;;27.75;14.95;;;9.30;99.90;;;;;;4993364;28;20033;-88
2022/01/04 12:54:34;;;;;;;33.83;15.07;;;9.30;99.90;;;;;;4980668;28;20037;-89
2022/01/04 12:57:06;;;;;;;26.33;14.45;;;9.30;99.90;;;;;;4994025;28;20042;-89
2022/01/04 12:59:40;;;;;;;26.63;15.05;;;9.40;99.90;;;;;;4994001;28;20045;-88